FHM7172 EDDB-EDDH
Flight info
| Callsign | FHM7172 |
|---|---|
| Flight time | 0h 35m |
| Altitude | 24000 |
| Route | SUKIP3Q/06R SUKIP M748 RARUP RARUP6A |
| Aircraft | A320/M-SDE3FGHIRWY/LB1 |
Departure
| Time | 2026-05-06 19:43 |
|---|---|
| Airport | Berlin Brandenburg Airport (EDDB) |
Arrival
| Time | 2026-05-06 20:18 |
|---|---|
| Airport | Hamburg Helmut Schmidt Airport (EDDH) |
| Time | Latitude | Longitude | Altitude | Speed | Heading |
|---|---|---|---|---|---|
| 2026-05-06 18:44 | 52.36014 | 13.50874 | 166 ft | 0 kts | 338° |
| 2026-05-06 19:27 | 52.36012 | 13.50876 | 166 ft | 2 kts | 339° |
| 2026-05-06 19:27 | 52.35998 | 13.50885 | 166 ft | 2 kts | 338° |
| 2026-05-06 19:27 | 52.35984 | 13.50893 | 166 ft | 2 kts | 338° |
| 2026-05-06 19:28 | 52.35969 | 13.50902 | 166 ft | 2 kts | 338° |
| 2026-05-06 19:28 | 52.35955 | 13.50911 | 166 ft | 2 kts | 338° |
| 2026-05-06 19:28 | 52.35945 | 13.50918 | 166 ft | 0 kts | 338° |
| 2026-05-06 19:34 | 52.35946 | 13.50915 | 166 ft | 0 kts | 310° |
| 2026-05-06 19:34 | 52.35936 | 13.50874 | 166 ft | 8 kts | 242° |
| 2026-05-06 19:34 | 52.35907 | 13.50781 | 166 ft | 9 kts | 247° |
| 2026-05-06 19:35 | 52.35878 | 13.50665 | 166 ft | 12 kts | 236° |
| 2026-05-06 19:35 | 52.35818 | 13.50651 | 166 ft | 5 kts | 161° |
| 2026-05-06 19:35 | 52.35767 | 13.50584 | 166 ft | 15 kts | 244° |
| 2026-05-06 19:35 | 52.35725 | 13.50412 | 166 ft | 15 kts | 248° |
| 2026-05-06 19:36 | 52.35686 | 13.50245 | 166 ft | 16 kts | 249° |
| 2026-05-06 19:36 | 52.35643 | 13.50071 | 166 ft | 17 kts | 247° |
| 2026-05-06 19:36 | 52.35597 | 13.49884 | 166 ft | 18 kts | 248° |
| 2026-05-06 19:36 | 52.35549 | 13.49680 | 166 ft | 19 kts | 249° |
| 2026-05-06 19:37 | 52.35499 | 13.49461 | 166 ft | 21 kts | 249° |
| 2026-05-06 19:37 | 52.35445 | 13.49235 | 166 ft | 21 kts | 249° |
| 2026-05-06 19:37 | 52.35389 | 13.48996 | 166 ft | 22 kts | 248° |
| 2026-05-06 19:37 | 52.35328 | 13.48748 | 166 ft | 24 kts | 247° |
| 2026-05-06 19:38 | 52.35264 | 13.48479 | 166 ft | 25 kts | 249° |
| 2026-05-06 19:38 | 52.35199 | 13.48201 | 166 ft | 26 kts | 249° |
| 2026-05-06 19:38 | 52.35140 | 13.47957 | 166 ft | 23 kts | 248° |
| 2026-05-06 19:38 | 52.35080 | 13.47702 | 166 ft | 24 kts | 248° |
| 2026-05-06 19:39 | 52.35017 | 13.47439 | 166 ft | 25 kts | 248° |
| 2026-05-06 19:39 | 52.34951 | 13.47164 | 166 ft | 26 kts | 248° |
| 2026-05-06 19:39 | 52.34890 | 13.46904 | 166 ft | 15 kts | 249° |
| 2026-05-06 19:39 | 52.34854 | 13.46749 | 166 ft | 11 kts | 249° |
| 2026-05-06 19:40 | 52.34800 | 13.46711 | 166 ft | 4 kts | 159° |
| 2026-05-06 19:40 | 52.34767 | 13.46731 | 166 ft | 5 kts | 158° |
| 2026-05-06 19:40 | 52.34726 | 13.46758 | 166 ft | 6 kts | 157° |
| 2026-05-06 19:40 | 52.34677 | 13.46791 | 166 ft | 8 kts | 157° |
| 2026-05-06 19:41 | 52.34619 | 13.46832 | 166 ft | 10 kts | 156° |
| 2026-05-06 19:41 | 52.34566 | 13.46909 | 166 ft | 11 kts | 101° |
| 2026-05-06 19:41 | 52.34571 | 13.46967 | 166 ft | 0 kts | 70° |
| 2026-05-06 19:41 | 52.34575 | 13.46982 | 166 ft | 0 kts | 69° |
| 2026-05-06 19:42 | 52.34578 | 13.46995 | 166 ft | 5 kts | 69° |
| 2026-05-06 19:42 | 52.34681 | 13.47428 | 166 ft | 76 kts | 68° |
| 2026-05-06 19:42 | 52.34953 | 13.48574 | 166 ft | 136 kts | 68° |
| 2026-05-06 19:42 | 52.35340 | 13.50203 | 464 ft | 159 kts | 68° |
| 2026-05-06 19:43 | 52.35614 | 13.51938 | 1111 ft | 162 kts | 92° |
| 2026-05-06 19:43 | 52.35106 | 13.53550 | 1805 ft | 170 kts | 127° |
| 2026-05-06 19:43 | 52.34264 | 13.54904 | 2476 ft | 172 kts | 131° |
| 2026-05-06 19:43 | 52.33267 | 13.55981 | 3053 ft | 182 kts | 166° |
| 2026-05-06 19:44 | 52.32030 | 13.55572 | 3555 ft | 194 kts | 215° |
| 2026-05-06 19:44 | 52.31007 | 13.54096 | 4000 ft | 204 kts | 223° |
| 2026-05-06 19:44 | 52.29924 | 13.52505 | 4444 ft | 213 kts | 221° |
| 2026-05-06 19:44 | 52.28751 | 13.50883 | 4758 ft | 231 kts | 220° |
| 2026-05-06 19:45 | 52.27471 | 13.49202 | 5216 ft | 244 kts | 222° |
| 2026-05-06 19:45 | 52.26429 | 13.46964 | 5624 ft | 256 kts | 252° |
| 2026-05-06 19:45 | 52.26248 | 13.44056 | 6143 ft | 264 kts | 275° |
| 2026-05-06 19:45 | 52.26370 | 13.41070 | 6857 ft | 268 kts | 272° |
| 2026-05-06 19:46 | 52.26672 | 13.38106 | 7633 ft | 270 kts | 294° |
| 2026-05-06 19:46 | 52.27696 | 13.35542 | 8420 ft | 272 kts | 306° |
| 2026-05-06 19:46 | 52.28874 | 13.33126 | 9152 ft | 276 kts | 306° |
| 2026-05-06 19:46 | 52.30058 | 13.30648 | 9893 ft | 279 kts | 304° |
| 2026-05-06 19:47 | 52.31218 | 13.28116 | 10535 ft | 287 kts | 303° |
| 2026-05-06 19:47 | 52.32419 | 13.25397 | 10906 ft | 304 kts | 303° |
| 2026-05-06 19:47 | 52.33686 | 13.22463 | 11237 ft | 322 kts | 302° |
| 2026-05-06 19:47 | 52.34989 | 13.19407 | 11545 ft | 338 kts | 302° |
| 2026-05-06 19:48 | 52.36370 | 13.16138 | 11849 ft | 354 kts | 302° |
| 2026-05-06 19:48 | 52.37765 | 13.12821 | 12302 ft | 363 kts | 302° |
| 2026-05-06 19:48 | 52.39196 | 13.09409 | 12911 ft | 366 kts | 302° |
| 2026-05-06 19:48 | 52.40642 | 13.05951 | 13514 ft | 370 kts | 302° |
| 2026-05-06 19:49 | 52.42115 | 13.02421 | 14099 ft | 374 kts | 302° |
| 2026-05-06 19:49 | 52.43585 | 12.98891 | 14675 ft | 377 kts | 302° |
| 2026-05-06 19:49 | 52.45058 | 12.95345 | 15244 ft | 380 kts | 302° |
| 2026-05-06 19:49 | 52.46540 | 12.91774 | 15811 ft | 382 kts | 301° |
| 2026-05-06 19:50 | 52.48030 | 12.88178 | 16345 ft | 385 kts | 301° |
| 2026-05-06 19:50 | 52.49553 | 12.84495 | 16885 ft | 387 kts | 301° |
| 2026-05-06 19:50 | 52.51051 | 12.80865 | 17393 ft | 390 kts | 301° |
| 2026-05-06 19:50 | 52.52575 | 12.77172 | 17897 ft | 392 kts | 301° |
| 2026-05-06 19:51 | 52.54118 | 12.73420 | 18385 ft | 394 kts | 301° |
| 2026-05-06 19:51 | 52.55657 | 12.69675 | 18851 ft | 397 kts | 301° |
| 2026-05-06 19:51 | 52.57190 | 12.65940 | 19311 ft | 399 kts | 301° |
| 2026-05-06 19:51 | 52.58750 | 12.62132 | 19776 ft | 402 kts | 301° |
| 2026-05-06 19:52 | 52.60302 | 12.58337 | 20216 ft | 404 kts | 301° |
| 2026-05-06 19:52 | 52.61871 | 12.54497 | 20651 ft | 406 kts | 301° |
| 2026-05-06 19:52 | 52.63457 | 12.50607 | 21079 ft | 408 kts | 301° |
| 2026-05-06 19:52 | 52.65036 | 12.46730 | 21487 ft | 411 kts | 301° |
| 2026-05-06 19:53 | 52.66631 | 12.42808 | 21891 ft | 413 kts | 300° |
| 2026-05-06 19:53 | 52.68258 | 12.38801 | 22295 ft | 415 kts | 300° |
| 2026-05-06 19:53 | 52.69882 | 12.34794 | 22682 ft | 417 kts | 300° |
| 2026-05-06 19:53 | 52.71511 | 12.30767 | 23072 ft | 419 kts | 300° |
| 2026-05-06 19:54 | 52.73128 | 12.26764 | 23445 ft | 421 kts | 300° |
| 2026-05-06 19:54 | 52.74755 | 12.22732 | 23780 ft | 423 kts | 300° |
| 2026-05-06 19:54 | 52.76408 | 12.18625 | 23845 ft | 423 kts | 300° |
| 2026-05-06 19:54 | 52.78062 | 12.14511 | 23851 ft | 423 kts | 300° |
| 2026-05-06 19:55 | 52.79696 | 12.10444 | 23853 ft | 423 kts | 300° |
| 2026-05-06 19:55 | 52.81315 | 12.06406 | 23853 ft | 423 kts | 300° |
| 2026-05-06 19:55 | 52.82956 | 12.02311 | 23854 ft | 423 kts | 300° |
| 2026-05-06 19:55 | 52.84593 | 11.98210 | 23852 ft | 424 kts | 300° |
| 2026-05-06 19:56 | 52.86233 | 11.94098 | 23846 ft | 424 kts | 300° |
| 2026-05-06 19:56 | 52.87862 | 11.90010 | 23846 ft | 424 kts | 300° |
| 2026-05-06 19:56 | 52.89473 | 11.85957 | 23850 ft | 424 kts | 300° |
| 2026-05-06 19:56 | 52.91101 | 11.81854 | 23856 ft | 424 kts | 301° |
| 2026-05-06 19:57 | 52.92719 | 11.77771 | 23855 ft | 424 kts | 301° |
| 2026-05-06 19:57 | 52.94349 | 11.73651 | 23853 ft | 425 kts | 301° |
| 2026-05-06 19:57 | 52.95974 | 11.69537 | 23853 ft | 425 kts | 301° |
| 2026-05-06 19:57 | 52.97607 | 11.65395 | 23850 ft | 425 kts | 301° |
| 2026-05-06 19:58 | 52.99226 | 11.61285 | 23854 ft | 425 kts | 301° |
| 2026-05-06 19:58 | 53.00863 | 11.57116 | 23857 ft | 426 kts | 301° |
| 2026-05-06 19:58 | 53.02476 | 11.53011 | 23857 ft | 426 kts | 301° |
| 2026-05-06 19:58 | 53.04102 | 11.48859 | 23855 ft | 426 kts | 301° |
| 2026-05-06 19:59 | 53.05733 | 11.44689 | 23856 ft | 426 kts | 301° |
| 2026-05-06 19:59 | 53.07366 | 11.40503 | 23853 ft | 427 kts | 301° |
| 2026-05-06 19:59 | 53.08979 | 11.36358 | 23855 ft | 427 kts | 302° |
| 2026-05-06 19:59 | 53.10689 | 11.32200 | 23855 ft | 428 kts | 306° |
| 2026-05-06 20:00 | 53.12664 | 11.28492 | 23859 ft | 430 kts | 313° |
| 2026-05-06 20:00 | 53.14922 | 11.25237 | 23791 ft | 428 kts | 320° |
| 2026-05-06 20:00 | 53.16958 | 11.22505 | 23283 ft | 413 kts | 313° |
| 2026-05-06 20:00 | 53.18616 | 11.18687 | 21883 ft | 407 kts | 292° |
| 2026-05-06 20:01 | 53.19346 | 11.14229 | 20450 ft | 401 kts | 278° |
| 2026-05-06 20:01 | 53.19821 | 11.09734 | 19160 ft | 395 kts | 279° |
| 2026-05-06 20:01 | 53.20362 | 11.05276 | 17901 ft | 388 kts | 281° |
| 2026-05-06 20:01 | 53.20975 | 11.00930 | 16684 ft | 382 kts | 283° |
| 2026-05-06 20:02 | 53.21636 | 10.96683 | 15501 ft | 375 kts | 284° |
| 2026-05-06 20:02 | 53.22315 | 10.92550 | 14345 ft | 369 kts | 285° |
| 2026-05-06 20:02 | 53.23006 | 10.88474 | 13182 ft | 362 kts | 285° |
| 2026-05-06 20:02 | 53.23693 | 10.84494 | 12006 ft | 357 kts | 285° |
| 2026-05-06 20:03 | 53.24377 | 10.80558 | 11007 ft | 351 kts | 285° |
| 2026-05-06 20:03 | 53.25051 | 10.76672 | 10328 ft | 344 kts | 285° |
| 2026-05-06 20:03 | 53.25701 | 10.72919 | 9940 ft | 316 kts | 287° |
| 2026-05-06 20:03 | 53.26286 | 10.69540 | 9875 ft | 287 kts | 285° |
| 2026-05-06 20:04 | 53.26835 | 10.66369 | 9879 ft | 281 kts | 287° |
| 2026-05-06 20:04 | 53.27383 | 10.63188 | 9882 ft | 281 kts | 287° |
| 2026-05-06 20:04 | 53.27931 | 10.60029 | 9885 ft | 282 kts | 288° |
| 2026-05-06 20:04 | 53.28484 | 10.56821 | 9886 ft | 283 kts | 288° |
| 2026-05-06 20:05 | 53.29040 | 10.53602 | 9886 ft | 284 kts | 288° |
| 2026-05-06 20:05 | 53.29587 | 10.50374 | 9885 ft | 285 kts | 287° |
| 2026-05-06 20:05 | 53.30103 | 10.47144 | 9885 ft | 285 kts | 286° |
| 2026-05-06 20:05 | 53.30609 | 10.43922 | 9886 ft | 285 kts | 286° |
| 2026-05-06 20:06 | 53.31113 | 10.40691 | 9886 ft | 285 kts | 286° |
| 2026-05-06 20:06 | 53.31625 | 10.37428 | 9888 ft | 287 kts | 286° |
| 2026-05-06 20:06 | 53.32128 | 10.34216 | 9891 ft | 287 kts | 285° |
| 2026-05-06 20:06 | 53.32635 | 10.30974 | 9815 ft | 288 kts | 285° |
| 2026-05-06 20:07 | 53.33143 | 10.27722 | 9700 ft | 287 kts | 285° |
| 2026-05-06 20:07 | 53.33651 | 10.24469 | 9596 ft | 287 kts | 285° |
| 2026-05-06 20:07 | 53.34152 | 10.21252 | 9499 ft | 287 kts | 285° |
| 2026-05-06 20:07 | 53.34658 | 10.17995 | 9416 ft | 287 kts | 285° |
| 2026-05-06 20:08 | 53.35156 | 10.14778 | 9268 ft | 287 kts | 285° |
| 2026-05-06 20:08 | 53.35654 | 10.11557 | 9081 ft | 286 kts | 285° |
| 2026-05-06 20:08 | 53.36156 | 10.08310 | 8814 ft | 285 kts | 286° |
| 2026-05-06 20:08 | 53.36651 | 10.05086 | 8491 ft | 284 kts | 286° |
| 2026-05-06 20:09 | 53.37145 | 10.01883 | 8159 ft | 282 kts | 286° |
| 2026-05-06 20:09 | 53.37627 | 9.98724 | 7642 ft | 280 kts | 286° |
| 2026-05-06 20:09 | 53.38111 | 9.95563 | 6952 ft | 281 kts | 286° |
| 2026-05-06 20:09 | 53.38596 | 9.92390 | 6316 ft | 280 kts | 287° |
| 2026-05-06 20:10 | 53.39073 | 9.89265 | 5637 ft | 278 kts | 287° |
| 2026-05-06 20:10 | 53.39552 | 9.86121 | 4947 ft | 276 kts | 287° |
| 2026-05-06 20:10 | 53.40029 | 9.82990 | 4275 ft | 273 kts | 287° |
| 2026-05-06 20:10 | 53.40606 | 9.80003 | 3599 ft | 267 kts | 303° |
| 2026-05-06 20:11 | 53.41660 | 9.77490 | 3122 ft | 260 kts | 313° |
| 2026-05-06 20:11 | 53.42799 | 9.75165 | 2980 ft | 258 kts | 314° |
| 2026-05-06 20:11 | 53.43922 | 9.72912 | 2967 ft | 243 kts | 314° |
| 2026-05-06 20:11 | 53.45048 | 9.70879 | 2960 ft | 224 kts | 330° |
| 2026-05-06 20:12 | 53.46405 | 9.70051 | 2960 ft | 194 kts | 5° |
| 2026-05-06 20:12 | 53.47622 | 9.70464 | 3037 ft | 167 kts | 21° |
| 2026-05-06 20:12 | 53.48674 | 9.71195 | 3001 ft | 160 kts | 32° |
| 2026-05-06 20:12 | 53.49573 | 9.72265 | 2999 ft | 159 kts | 41° |
| 2026-05-06 20:13 | 53.50377 | 9.73543 | 2994 ft | 158 kts | 46° |
| 2026-05-06 20:13 | 53.51160 | 9.74902 | 2995 ft | 159 kts | 47° |
| 2026-05-06 20:13 | 53.51908 | 9.76287 | 2994 ft | 159 kts | 49° |
| 2026-05-06 20:13 | 53.52634 | 9.77697 | 2944 ft | 159 kts | 50° |
| 2026-05-06 20:14 | 53.53351 | 9.79131 | 2741 ft | 158 kts | 50° |
| 2026-05-06 20:14 | 53.54053 | 9.80556 | 2526 ft | 157 kts | 51° |
| 2026-05-06 20:14 | 53.54742 | 9.81963 | 2315 ft | 156 kts | 51° |
| 2026-05-06 20:14 | 53.55442 | 9.83391 | 2103 ft | 156 kts | 51° |
| 2026-05-06 20:15 | 53.56102 | 9.84738 | 1904 ft | 142 kts | 51° |
| 2026-05-06 20:15 | 53.56720 | 9.85996 | 1700 ft | 136 kts | 51° |
| 2026-05-06 20:15 | 53.57320 | 9.87221 | 1517 ft | 135 kts | 51° |
| 2026-05-06 20:15 | 53.57915 | 9.88421 | 1334 ft | 132 kts | 50° |
| 2026-05-06 20:16 | 53.58511 | 9.89608 | 1121 ft | 136 kts | 51° |
| 2026-05-06 20:16 | 53.59100 | 9.90885 | 989 ft | 137 kts | 51° |
| 2026-05-06 20:16 | 53.59717 | 9.92135 | 766 ft | 138 kts | 50° |
| 2026-05-06 20:16 | 53.60327 | 9.93366 | 558 ft | 138 kts | 50° |
| 2026-05-06 20:17 | 53.60947 | 9.94605 | 387 ft | 136 kts | 49° |
| 2026-05-06 20:17 | 53.61553 | 9.95838 | 207 ft | 135 kts | 51° |
| 2026-05-06 20:17 | 53.62148 | 9.97034 | 76 ft | 130 kts | 49° |
| 2026-05-06 20:17 | 53.62682 | 9.98108 | 62 ft | 98 kts | 51° |
| 2026-05-06 20:18 | 53.63003 | 9.98760 | 62 ft | 43 kts | 51° |
| 2026-05-06 20:18 | 53.63186 | 9.99131 | 62 ft | 38 kts | 51° |
| 2026-05-06 20:18 | 53.63289 | 9.99440 | 62 ft | 16 kts | 89° |
| 2026-05-06 20:18 | 53.63282 | 9.99586 | 62 ft | 8 kts | 98° |
| 2026-05-06 20:19 | 53.63277 | 9.99656 | 62 ft | 0 kts | 99° |
| 2026-05-06 20:19 | 53.63275 | 9.99671 | 62 ft | 2 kts | 98° |
| 2026-05-06 20:19 | 53.63273 | 9.99687 | 62 ft | 0 kts | 102° |
| 2026-05-06 20:19 | 53.63271 | 9.99703 | 62 ft | 2 kts | 100° |
| 2026-05-06 20:20 | 53.63279 | 9.99760 | 62 ft | 8 kts | 60° |
| 2026-05-06 20:20 | 53.63323 | 9.99855 | 62 ft | 10 kts | 51° |
| 2026-05-06 20:20 | 53.63374 | 9.99962 | 62 ft | 12 kts | 51° |
| 2026-05-06 20:20 | 53.63428 | 10.00077 | 62 ft | 12 kts | 61° |
| 2026-05-06 20:21 | 53.63393 | 10.00202 | 62 ft | 12 kts | 137° |
| 2026-05-06 20:21 | 53.63329 | 10.00232 | 62 ft | 8 kts | 173° |
| 2026-05-06 20:21 | 53.63290 | 10.00273 | 62 ft | 3 kts | 91° |
| 2026-05-06 20:21 | 53.63291 | 10.00320 | 62 ft | 0 kts | 86° |
| 2026-05-06 20:22 | 53.63291 | 10.00323 | 62 ft | 0 kts | 86° |
| 2026-05-06 20:22 | 53.63291 | 10.00324 | 62 ft | 0 kts | 86° |
| 2026-05-06 20:22 | 53.63291 | 10.00325 | 62 ft | 0 kts | 86° |
| 2026-05-06 20:22 | 53.63292 | 10.00333 | 62 ft | 1 kts | 84° |
| 2026-05-06 20:23 | 53.63293 | 10.00355 | 62 ft | 0 kts | 86° |